createdAt,value
2018-09-12T00:00:26.976Z,89.83
2018-09-12T00:01:26.904Z,90.40
2018-09-12T00:02:26.820Z,90.40
2018-09-12T00:03:26.752Z,90.21
2018-09-12T00:04:26.669Z,90.78
2018-09-12T00:05:26.602Z,90.88
2018-09-12T00:06:26.516Z,91.26
2018-09-12T00:07:26.447Z,91.16
2018-09-12T00:08:26.365Z,91.74
2018-09-12T00:09:26.295Z,91.93
2018-09-12T00:10:26.221Z,91.78
2018-09-12T00:11:26.145Z,91.64
2018-09-12T00:12:26.058Z,91.60
2018-09-12T00:13:25.991Z,91.98
2018-09-12T00:14:25.904Z,91.41
2018-09-12T00:15:25.839Z,92.07
2018-09-12T00:16:25.753Z,93.02
2018-09-12T00:17:25.687Z,92.26
2018-09-12T00:18:25.600Z,91.31
2018-09-12T00:19:25.596Z,89.59
2018-09-12T00:20:25.448Z,88.45
2018-09-12T00:21:25.379Z,88.73
2018-09-12T00:22:25.297Z,89.02
2018-09-12T00:23:25.226Z,89.50
2018-09-12T00:24:25.148Z,90.17
2018-09-12T00:25:25.073Z,91.88
2018-09-12T00:26:24.992Z,92.17
2018-09-12T00:27:24.921Z,92.36
2018-09-12T00:28:24.846Z,92.74
2018-09-12T00:29:24.769Z,92.74
2018-09-12T00:30:24.684Z,93.41
2018-09-12T00:31:24.616Z,93.98
2018-09-12T00:32:24.535Z,94.46
2018-09-12T00:33:24.467Z,93.02
2018-09-12T00:34:24.386Z,92.93
2018-09-12T00:35:24.310Z,90.83
2018-09-12T00:36:24.228Z,88.54
2018-09-12T00:37:24.156Z,86.92
2018-09-12T00:38:24.074Z,85.77
2018-09-12T00:39:24.014Z,85.77
2018-09-12T00:40:23.919Z,85.77
2018-09-12T00:41:23.852Z,85.68
2018-09-12T00:42:23.771Z,86.35
2018-09-12T00:43:23.697Z,87.11
2018-09-12T00:44:23.615Z,88.02
2018-09-12T00:45:23.543Z,90.41
2018-09-12T00:46:23.464Z,91.46
2018-09-12T00:47:23.393Z,92.12
2018-09-12T00:48:23.309Z,92.12
2018-09-12T00:49:23.240Z,93.46
2018-09-12T00:50:23.154Z,94.51
2018-09-12T00:51:23.085Z,94.51
2018-09-12T00:52:23.004Z,94.12
2018-09-12T00:53:22.932Z,94.98
2018-09-12T00:54:22.853Z,95.56
2018-09-12T00:55:22.779Z,95.56
2018-09-12T00:56:22.695Z,95.27
2018-09-12T00:57:22.626Z,94.32
2018-09-12T00:58:22.542Z,94.36
2018-09-12T00:59:22.468Z,94.41
2018-09-12T01:00:22.387Z,94.07
2018-09-12T01:01:22.320Z,93.51
2018-09-12T01:02:22.235Z,91.98
2018-09-12T01:03:22.166Z,89.17
2018-09-12T01:04:22.084Z,87.83
2018-09-12T01:05:22.009Z,87.74
2018-09-12T01:06:21.931Z,88.40
2018-09-12T01:07:21.860Z,88.98
2018-09-12T01:08:21.773Z,90.41
2018-09-12T01:09:21.751Z,91.27
2018-09-12T01:10:21.620Z,92.32
2018-09-12T01:11:21.550Z,93.84
2018-09-12T01:12:21.465Z,94.32
2018-09-12T01:13:21.397Z,95.27
2018-09-12T01:14:21.313Z,95.46
2018-09-12T01:15:21.242Z,94.60
2018-09-12T01:16:21.162Z,93.84
2018-09-12T01:17:21.094Z,92.88
2018-09-12T01:18:21.007Z,92.12
2018-09-12T01:19:20.940Z,91.74
2018-09-12T01:20:20.852Z,91.55
2018-09-12T01:21:20.779Z,91.27
2018-09-12T01:22:20.700Z,90.98
2018-09-12T01:23:20.631Z,91.17
2018-09-12T01:24:20.549Z,91.74
2018-09-12T01:25:20.474Z,91.64
2018-09-12T01:26:20.391Z,90.50
2018-09-12T01:27:20.327Z,89.07
2018-09-12T01:28:20.245Z,88.31
2018-09-12T01:29:20.169Z,87.35
2018-09-12T01:30:20.085Z,86.98
2018-09-12T01:31:20.015Z,87.54
2018-09-12T01:32:19.932Z,89.17
2018-09-12T01:33:19.865Z,89.26
2018-09-12T01:34:19.777Z,91.27
2018-09-12T01:35:19.709Z,91.83
2018-09-12T01:36:19.622Z,92.12
2018-09-12T01:37:19.552Z,91.64
2018-09-12T01:38:19.471Z,92.32
2018-09-12T01:39:19.401Z,93.46
2018-09-12T01:40:19.315Z,94.98
2018-09-12T01:41:19.248Z,95.37
2018-09-12T01:42:19.163Z,96.03
2018-09-12T01:43:19.098Z,95.37
2018-09-12T01:44:19.007Z,96.22
2018-09-12T01:45:18.943Z,96.46
2018-09-12T01:46:18.853Z,96.61
2018-09-12T01:47:18.785Z,96.46
2018-09-12T01:48:18.699Z,96.89
2018-09-12T01:49:18.630Z,97.61
2018-09-12T01:50:18.547Z,97.80
2018-09-12T01:51:18.476Z,97.61
2018-09-12T01:52:18.392Z,98.08
2018-09-12T01:53:18.322Z,99.13
2018-09-12T01:54:18.240Z,99.89
2018-09-12T01:55:18.169Z,99.99
2018-09-12T01:56:18.081Z,99.99
2018-09-12T01:57:18.016Z,99.99
2018-09-12T01:58:17.931Z,99.99
2018-09-12T01:59:17.862Z,99.99
2018-09-12T02:00:17.776Z,99.99
2018-09-12T02:01:17.705Z,99.99
2018-09-12T02:02:17.623Z,99.95
2018-09-12T02:03:17.552Z,99.22
2018-09-12T02:04:17.468Z,99.46
2018-09-12T02:05:17.403Z,96.65
2018-09-12T02:06:17.314Z,94.08
2018-09-12T02:07:17.256Z,93.70
2018-09-12T02:08:17.161Z,92.84
2018-09-12T02:09:17.092Z,94.17
2018-09-12T02:10:17.003Z,93.51
2018-09-12T02:11:16.936Z,93.32
2018-09-12T02:12:16.849Z,91.50
2018-09-12T02:13:16.780Z,91.60
2018-09-12T02:14:16.699Z,91.13
2018-09-12T02:15:16.628Z,90.84
2018-09-12T02:16:16.548Z,90.74
2018-09-12T02:17:16.476Z,91.13
2018-09-12T02:18:16.391Z,91.79
2018-09-12T02:19:16.319Z,91.98
2018-09-12T02:20:16.236Z,91.88
2018-09-12T02:21:16.164Z,91.79
2018-09-12T02:22:16.080Z,91.98
2018-09-12T02:23:16.014Z,91.50
2018-09-12T02:24:15.925Z,92.36
2018-09-12T02:25:15.852Z,93.60
2018-09-12T02:26:15.772Z,92.93
2018-09-12T02:27:15.704Z,91.98
2018-09-12T02:28:15.621Z,90.93
2018-09-12T02:29:15.548Z,90.55
2018-09-12T02:30:15.464Z,91.60
2018-09-12T02:31:15.397Z,93.12
2018-09-12T02:32:15.311Z,94.08
2018-09-12T02:33:15.240Z,94.37
2018-09-12T02:34:15.157Z,93.98
2018-09-12T02:35:15.086Z,94.17
2018-09-12T02:36:14.998Z,94.74
2018-09-12T02:37:14.931Z,94.65
2018-09-12T02:38:14.847Z,94.46
2018-09-12T02:39:14.779Z,93.51
2018-09-12T02:40:14.693Z,92.55
2018-09-12T02:41:14.623Z,93.12
2018-09-12T02:42:14.540Z,94.37
2018-09-12T02:43:14.467Z,94.17
2018-09-12T02:44:14.390Z,94.74
2018-09-12T02:45:14.314Z,95.37
2018-09-12T02:46:14.230Z,94.84
2018-09-12T02:47:14.163Z,94.56
2018-09-12T02:48:14.076Z,93.79
2018-09-12T02:49:14.059Z,91.46
2018-09-12T02:50:13.924Z,89.12
2018-09-12T02:51:13.852Z,88.45
2018-09-12T02:52:13.767Z,89.22
2018-09-12T02:53:13.696Z,89.22
2018-09-12T02:54:13.606Z,89.50
2018-09-12T02:55:13.542Z,89.22
2018-09-12T02:56:13.464Z,89.40
2018-09-12T02:57:13.385Z,89.12
2018-09-12T02:58:13.303Z,88.74
2018-09-12T02:59:13.235Z,89.69
2018-09-12T03:00:13.148Z,90.36
2018-09-12T03:01:13.077Z,91.22
2018-09-12T03:02:12.995Z,91.69
2018-09-12T03:03:12.929Z,91.69
2018-09-12T03:04:12.836Z,91.69
2018-09-12T03:05:12.769Z,92.36
2018-09-12T03:06:12.685Z,93.03
2018-09-12T03:07:12.616Z,94.37
2018-09-12T03:08:12.528Z,93.88
2018-09-12T03:09:12.459Z,93.32
2018-09-12T03:10:12.376Z,91.41
2018-09-12T03:11:12.304Z,92.65
2018-09-12T03:12:12.220Z,93.51
2018-09-12T03:13:12.153Z,94.17
2018-09-12T03:14:12.066Z,94.46
2018-09-12T03:15:11.998Z,94.65
2018-09-12T03:16:11.917Z,94.03
2018-09-12T03:17:11.844Z,92.74
2018-09-12T03:18:11.757Z,91.88
2018-09-12T03:19:11.687Z,91.69
2018-09-12T03:20:11.604Z,92.27
2018-09-12T03:21:11.598Z,93.55
2018-09-12T03:22:11.447Z,93.70
2018-09-12T03:23:11.378Z,93.46
2018-09-12T03:24:11.293Z,92.74
2018-09-12T03:25:12.224Z,91.64
2018-09-12T03:26:11.143Z,91.22
2018-09-12T03:27:11.082Z,90.84
2018-09-12T03:28:10.987Z,90.93
2018-09-12T03:29:10.914Z,91.60
2018-09-12T03:30:10.830Z,93.03
2018-09-12T03:31:10.758Z,94.27
2018-09-12T03:32:10.678Z,95.12
2018-09-12T03:33:10.606Z,96.46
2018-09-12T03:34:10.524Z,96.08
2018-09-12T03:35:10.457Z,96.75
2018-09-12T03:36:10.367Z,96.08
2018-09-12T03:37:10.297Z,95.79
2018-09-12T03:38:10.214Z,93.60
2018-09-12T03:39:10.151Z,92.65
2018-09-12T03:40:10.060Z,90.74
2018-09-12T03:41:09.987Z,89.31
2018-09-12T03:42:09.901Z,89.55
2018-09-12T03:43:09.834Z,90.31
2018-09-12T03:44:09.748Z,90.60
2018-09-12T03:45:09.679Z,91.55
2018-09-12T03:46:09.593Z,92.79
2018-09-12T03:47:09.524Z,93.27
2018-09-12T03:48:09.478Z,94.41
2018-09-12T03:49:09.360Z,94.32
2018-09-12T03:50:09.399Z,93.55
2018-09-12T03:51:09.207Z,94.60
2018-09-12T03:52:09.206Z,95.94
2018-09-12T03:53:09.054Z,96.70
2018-09-12T03:54:09.016Z,97.08
2018-09-12T03:55:08.898Z,96.60
2018-09-12T03:56:08.930Z,96.60
2018-09-12T03:57:08.741Z,95.36
2018-09-12T03:58:08.736Z,94.70
2018-09-12T03:59:08.590Z,93.84
2018-09-12T04:00:08.515Z,92.79
2018-09-12T04:01:08.431Z,92.79
2018-09-12T04:02:08.360Z,94.03
2018-09-12T04:03:08.277Z,94.03
2018-09-12T04:04:08.211Z,94.13
2018-09-12T04:05:08.122Z,93.74
2018-09-12T04:06:08.054Z,94.60
2018-09-12T04:07:07.971Z,94.51
2018-09-12T04:08:07.900Z,94.70
2018-09-12T04:09:07.811Z,95.84
2018-09-12T04:10:07.746Z,94.89
2018-09-12T04:11:07.657Z,94.32
2018-09-12T04:12:07.588Z,92.98
2018-09-12T04:13:07.504Z,92.50
2018-09-12T04:14:08.450Z,92.22
2018-09-12T04:15:07.347Z,91.84
2018-09-12T04:16:07.276Z,92.79
2018-09-12T04:17:07.192Z,92.98
2018-09-12T04:18:07.125Z,92.79
2018-09-12T04:19:07.037Z,93.46
2018-09-12T04:20:06.967Z,94.13
2018-09-12T04:21:06.882Z,94.41
2018-09-12T04:22:06.813Z,93.46
2018-09-12T04:23:06.726Z,90.60
2018-09-12T04:24:06.720Z,90.31
2018-09-12T04:25:06.572Z,90.60
2018-09-12T04:26:06.500Z,91.65
2018-09-12T04:27:06.415Z,92.69
2018-09-12T04:28:06.348Z,94.60
2018-09-12T04:29:06.262Z,96.70
2018-09-12T04:30:06.195Z,96.80
2018-09-12T04:31:06.106Z,98.03
2018-09-12T04:32:06.035Z,98.22
2018-09-12T04:33:05.958Z,98.70
2018-09-12T04:34:05.880Z,97.46
2018-09-12T04:35:05.800Z,95.94
2018-09-12T04:36:05.725Z,97.08
2018-09-12T04:37:05.643Z,97.36
2018-09-12T04:38:05.565Z,97.36
2018-09-12T04:39:05.491Z,96.84
2018-09-12T04:40:05.409Z,96.46
2018-09-12T04:41:05.341Z,96.80
2018-09-12T04:42:05.252Z,96.75
2018-09-12T04:43:05.175Z,97.46
2018-09-12T04:44:05.094Z,98.03
2018-09-12T04:45:05.025Z,98.99
2018-09-12T04:46:04.950Z,99.55
2018-09-12T04:47:04.867Z,99.27
2018-09-12T04:48:04.793Z,99.27
2018-09-12T04:49:04.709Z,99.46
2018-09-12T04:50:04.638Z,99.27
2018-09-12T04:51:04.553Z,99.65
2018-09-12T04:52:06.129Z,99.99
2018-09-12T04:53:04.398Z,99.99
2018-09-12T04:54:04.398Z,99.84
2018-09-12T04:55:04.246Z,99.75
2018-09-12T04:56:04.210Z,98.13
2018-09-12T04:57:04.087Z,96.98
2018-09-12T04:58:04.115Z,96.70
2018-09-12T04:59:03.934Z,96.41
2018-09-12T05:00:03.925Z,96.70
2018-09-12T05:01:03.778Z,96.70
2018-09-12T05:02:03.733Z,97.56
2018-09-12T05:03:03.626Z,98.51
2018-09-12T05:04:03.652Z,99.27
2018-09-12T05:05:03.468Z,99.37
2018-09-12T05:06:03.463Z,99.99
2018-09-12T05:07:03.312Z,99.55
2018-09-12T05:08:03.263Z,98.79
2018-09-12T05:09:03.164Z,98.13
2018-09-12T05:10:03.177Z,97.94
2018-09-12T05:11:03.004Z,97.17
2018-09-12T05:12:02.980Z,97.65
2018-09-12T05:13:02.844Z,97.46
2018-09-12T05:14:02.788Z,96.51
2018-09-12T05:15:02.690Z,96.41
2018-09-12T05:16:02.773Z,96.70
2018-09-12T05:17:02.538Z,96.60
2018-09-12T05:18:02.468Z,96.12
2018-09-12T05:19:02.380Z,96.51
2018-09-12T05:20:02.310Z,96.51
2018-09-12T05:21:02.225Z,96.60
2018-09-12T05:22:02.158Z,96.51
2018-09-12T05:23:02.069Z,96.32
2018-09-12T05:24:01.996Z,96.98
2018-09-12T05:25:01.915Z,97.27
2018-09-12T05:26:01.845Z,98.13
2018-09-12T05:27:01.766Z,98.70
2018-09-12T05:28:01.688Z,99.84
2018-09-12T05:29:01.601Z,99.99
2018-09-12T05:30:01.599Z,99.99
2018-09-12T05:31:01.447Z,99.99
2018-09-12T05:32:01.375Z,99.99
2018-09-12T05:33:01.295Z,99.99
2018-09-12T05:34:01.222Z,99.99
2018-09-12T05:35:01.144Z,99.99
2018-09-12T05:36:01.066Z,99.99
2018-09-12T05:37:00.982Z,99.99
2018-09-12T05:38:00.912Z,99.99
2018-09-12T05:39:00.830Z,99.99
2018-09-12T05:40:00.756Z,99.99
2018-09-12T05:41:00.671Z,99.99
2018-09-12T05:42:00.604Z,99.99
2018-09-12T05:43:00.522Z,99.99
2018-09-12T05:44:00.448Z,99.99
2018-09-12T05:45:00.368Z,99.99
2018-09-12T05:46:00.291Z,99.99
2018-09-12T05:47:00.207Z,99.99
2018-09-12T05:48:00.134Z,99.99
2018-09-12T05:49:00.051Z,99.99
2018-09-12T05:50:00.020Z,99.99
2018-09-12T05:50:59.902Z,99.99
2018-09-12T05:51:59.824Z,99.99
2018-09-12T05:52:59.743Z,99.99
2018-09-12T05:53:59.674Z,99.99
2018-09-12T05:54:59.588Z,99.99
2018-09-12T05:55:59.515Z,99.99
2018-09-12T05:56:59.425Z,99.99
2018-09-12T05:57:59.361Z,99.99
2018-09-12T05:58:59.280Z,99.99
2018-09-12T05:59:59.210Z,99.99
2018-09-12T06:00:59.120Z,99.99
2018-09-12T06:01:59.052Z,99.99
2018-09-12T06:02:58.966Z,99.99
2018-09-12T06:03:58.897Z,99.99
2018-09-12T06:04:58.811Z,99.99
2018-09-12T06:05:58.742Z,99.99
2018-09-12T06:06:58.766Z,99.99
2018-09-12T06:07:58.587Z,99.99
2018-09-12T06:08:58.502Z,99.99
2018-09-12T06:09:58.431Z,99.99
2018-09-12T06:10:58.349Z,99.99
2018-09-12T06:11:58.281Z,99.99
2018-09-12T06:12:58.192Z,99.99
2018-09-12T06:13:58.132Z,99.99
2018-09-12T06:14:58.036Z,99.99
2018-09-12T06:15:57.968Z,99.99
2018-09-12T06:16:57.889Z,99.99
2018-09-12T06:17:57.815Z,99.99
2018-09-12T06:18:57.730Z,99.99
2018-09-12T06:19:57.656Z,99.99
2018-09-12T06:20:57.574Z,99.99
2018-09-12T06:21:57.506Z,99.99
2018-09-12T06:22:57.419Z,99.99
2018-09-12T06:23:57.350Z,99.99
2018-09-12T06:24:57.268Z,99.99
2018-09-12T06:25:57.195Z,99.99
2018-09-12T06:26:57.111Z,99.99
2018-09-12T06:27:57.041Z,99.99
2018-09-12T06:28:56.956Z,99.99
2018-09-12T06:29:56.890Z,99.99
2018-09-12T06:30:56.810Z,99.99
2018-09-12T06:31:56.732Z,99.99
2018-09-12T06:32:56.647Z,99.99
2018-09-12T06:33:56.576Z,99.99
2018-09-12T06:34:56.497Z,99.99
2018-09-12T06:35:56.424Z,99.99
2018-09-12T06:36:56.340Z,99.99
2018-09-12T06:37:56.318Z,99.99
2018-09-12T06:38:56.186Z,99.99
2018-09-12T06:39:56.117Z,99.99
2018-09-12T06:40:56.033Z,99.99
2018-09-12T06:41:55.968Z,99.99
2018-09-12T06:42:55.878Z,99.99
2018-09-12T06:43:55.812Z,99.99
2018-09-12T06:44:55.725Z,99.99
2018-09-12T06:45:55.653Z,99.99
2018-09-12T06:46:55.566Z,99.99
2018-09-12T06:47:55.500Z,99.99
2018-09-12T06:48:55.414Z,99.99
2018-09-12T06:49:55.347Z,99.99
2018-09-12T06:50:55.261Z,99.99
2018-09-12T06:51:55.196Z,99.99
2018-09-12T06:52:55.115Z,99.99
2018-09-12T06:53:55.042Z,99.99
2018-09-12T06:54:54.959Z,99.99
2018-09-12T06:55:54.887Z,99.99
2018-09-12T06:56:54.802Z,99.99
2018-09-12T06:57:54.735Z,99.99
2018-09-12T06:58:54.643Z,99.99
2018-09-12T06:59:54.583Z,99.99
2018-09-12T07:00:54.511Z,99.99
2018-09-12T07:01:54.429Z,99.99
2018-09-12T07:02:54.345Z,99.99
2018-09-12T07:03:54.276Z,99.99
2018-09-12T07:04:54.190Z,99.99
2018-09-12T07:05:54.123Z,99.99
2018-09-12T07:06:54.037Z,99.99
2018-09-12T07:07:53.969Z,99.99
2018-09-12T07:08:53.890Z,99.99
2018-09-12T07:09:53.817Z,99.99
2018-09-12T07:10:53.738Z,99.99
2018-09-12T07:11:53.663Z,99.99
2018-09-12T07:12:53.578Z,99.99
2018-09-12T07:13:53.514Z,99.99
2018-09-12T07:14:53.425Z,99.99
2018-09-12T07:15:53.360Z,99.99
2018-09-12T07:16:53.278Z,99.99
2018-09-12T07:17:53.207Z,99.99
2018-09-12T07:18:53.127Z,99.99
2018-09-12T07:19:53.056Z,99.99
2018-09-12T07:20:52.972Z,98.81
2018-09-12T07:21:52.912Z,98.67
2018-09-12T07:22:52.820Z,98.96
2018-09-12T07:23:52.755Z,98.86
2018-09-12T07:24:52.675Z,97.33
2018-09-12T07:25:52.601Z,97.28
2018-09-12T07:26:52.519Z,96.89
2018-09-12T07:27:52.452Z,95.94
2018-09-12T07:28:52.369Z,95.07
2018-09-12T07:29:52.299Z,94.74
2018-09-12T07:30:52.218Z,94.16
2018-09-12T07:31:52.146Z,92.77
2018-09-12T07:32:52.066Z,91.90
2018-09-12T07:33:52.004Z,89.79
2018-09-12T07:34:51.918Z,90.41
2018-09-12T07:35:51.852Z,90.60
2018-09-12T07:36:51.768Z,90.12
2018-09-12T07:37:51.698Z,89.07
2018-09-12T07:38:51.618Z,88.63
2018-09-12T07:39:51.548Z,86.13
2018-09-12T07:40:51.467Z,84.40
2018-09-12T07:41:51.403Z,82.14
2018-09-12T07:42:51.322Z,80.60
2018-09-12T07:43:51.252Z,79.67
2018-09-12T07:44:51.171Z,79.00
2018-09-12T07:45:51.101Z,77.94
2018-09-12T07:46:51.025Z,77.50
2018-09-12T07:47:50.952Z,76.53
2018-09-12T07:48:50.874Z,75.57
2018-09-12T07:49:50.881Z,75.23
2018-09-12T07:50:50.726Z,74.93
2018-09-12T07:51:50.698Z,73.88
2018-09-12T07:52:50.578Z,72.91
2018-09-12T07:53:50.601Z,72.18
2018-09-12T07:54:50.431Z,71.41
2018-09-12T07:55:50.508Z,69.96
2018-09-12T07:56:50.289Z,71.15
2018-09-12T07:57:50.224Z,70.48
2018-09-12T07:58:50.137Z,69.51
2018-09-12T07:59:50.073Z,68.26
2018-09-12T08:00:49.993Z,68.68
2018-09-12T08:01:49.927Z,68.29
2018-09-12T08:02:49.843Z,68.19
2018-09-12T08:03:49.778Z,66.94
2018-09-12T08:04:49.699Z,67.07
2018-09-12T08:05:49.633Z,66.49
2018-09-12T08:06:49.553Z,66.69
2018-09-12T08:07:49.491Z,66.72
2018-09-12T08:08:49.410Z,66.72
2018-09-12T08:09:49.343Z,66.91
2018-09-12T08:10:49.262Z,66.82
2018-09-12T08:11:49.198Z,67.04
2018-09-12T08:12:49.120Z,66.66
2018-09-12T08:13:49.056Z,66.40
2018-09-12T08:14:48.980Z,66.30
2018-09-12T08:15:48.907Z,63.98
2018-09-12T08:16:48.851Z,64.98
2018-09-12T08:17:48.763Z,65.17
2018-09-12T08:18:48.741Z,63.43
2018-09-12T08:19:48.624Z,62.56
2018-09-12T08:20:48.544Z,62.30
2018-09-12T08:21:48.480Z,63.46
2018-09-12T08:22:48.402Z,62.88
2018-09-12T08:23:48.335Z,62.98
2018-09-12T08:24:48.258Z,62.34
2018-09-12T08:25:48.195Z,61.95
2018-09-12T08:26:48.124Z,61.08
2018-09-12T08:27:48.049Z,59.94
2018-09-12T08:28:47.975Z,59.36
2018-09-12T08:29:47.915Z,60.52
2018-09-12T08:30:47.833Z,60.43
2018-09-12T08:31:47.769Z,59.49
2018-09-12T08:32:47.691Z,58.04
2018-09-12T08:33:47.628Z,58.33
2018-09-12T08:34:47.551Z,59.00
2018-09-12T08:35:47.487Z,59.03
2018-09-12T08:36:47.410Z,58.74
2018-09-12T08:37:47.347Z,57.48
2018-09-12T08:38:47.272Z,58.00
2018-09-12T08:39:47.204Z,56.74
2018-09-12T08:40:47.127Z,55.06
2018-09-12T08:41:47.068Z,55.96
2018-09-12T08:42:46.990Z,54.41
2018-09-12T08:43:46.927Z,54.21
2018-09-12T08:44:46.849Z,54.41
2018-09-12T08:45:46.790Z,54.53
2018-09-12T08:46:46.712Z,54.92
2018-09-12T08:47:46.709Z,54.44
2018-09-12T08:48:46.572Z,53.88
2018-09-12T08:49:46.509Z,54.27
2018-09-12T08:50:46.438Z,54.75
2018-09-12T08:51:46.374Z,55.24
2018-09-12T08:52:46.304Z,54.66
2018-09-12T08:53:46.235Z,52.35
2018-09-12T08:54:46.159Z,52.15
2018-09-12T08:55:46.100Z,52.25
2018-09-12T08:56:46.027Z,51.09
2018-09-12T08:57:45.958Z,50.02
2018-09-12T08:58:45.881Z,51.38
2018-09-12T08:59:45.820Z,52.55
2018-09-12T09:00:45.742Z,48.75
2018-09-12T09:01:45.726Z,49.05
2018-09-12T09:02:45.611Z,48.85
2018-09-12T09:03:45.549Z,50.53
2018-09-12T09:04:45.474Z,50.43
2018-09-12T09:05:45.409Z,50.43
2018-09-12T09:06:45.333Z,49.37
2018-09-12T09:07:45.272Z,50.16
2018-09-12T09:08:45.197Z,50.16
2018-09-12T09:09:45.137Z,49.39
2018-09-12T09:10:45.074Z,46.69
2018-09-12T09:11:44.997Z,46.98
2018-09-12T09:12:44.924Z,48.13
2018-09-12T09:13:44.871Z,46.69
2018-09-12T09:14:44.790Z,46.28
2018-09-12T09:15:44.729Z,46.30
2018-09-12T09:16:44.655Z,46.11
2018-09-12T09:17:44.597Z,46.69
2018-09-12T09:18:44.520Z,46.50
2018-09-12T09:19:44.460Z,47.20
2018-09-12T09:20:44.382Z,48.85
2018-09-12T09:21:44.324Z,47.20
2018-09-12T09:22:44.261Z,46.71
2018-09-12T09:23:44.291Z,44.76
2018-09-12T09:24:44.117Z,45.45
2018-09-12T09:25:44.053Z,45.06
2018-09-12T09:26:43.981Z,45.64
2018-09-12T09:27:43.923Z,44.98
2018-09-12T09:28:43.847Z,44.10
2018-09-12T09:29:43.791Z,45.76
2018-09-12T09:30:43.714Z,45.18
2018-09-12T09:31:43.652Z,45.39
2018-09-12T09:32:43.648Z,44.71
2018-09-12T09:33:43.520Z,44.23
2018-09-12T09:34:43.452Z,44.90
2018-09-12T09:35:43.594Z,46.88
2018-09-12T09:36:43.312Z,46.59
2018-09-12T09:37:43.255Z,45.22
2018-09-12T09:38:43.179Z,45.22
2018-09-12T09:39:43.121Z,44.83
2018-09-12T09:40:43.044Z,44.93
2018-09-12T09:41:42.990Z,43.10
2018-09-12T09:42:42.952Z,42.69
2018-09-12T09:43:42.855Z,41.91
2018-09-12T09:44:42.788Z,40.93
2018-09-12T09:45:42.722Z,42.59
2018-09-12T09:46:42.649Z,43.18
2018-09-12T09:47:42.591Z,43.39
2018-09-12T09:48:42.519Z,42.80
2018-09-12T09:49:42.461Z,40.86
2018-09-12T09:50:42.387Z,41.44
2018-09-12T09:51:42.320Z,41.63
2018-09-12T09:52:42.313Z,42.32
2018-09-12T09:53:42.188Z,41.05
2018-09-12T09:54:42.242Z,39.88
2018-09-12T09:55:42.057Z,39.98
2018-09-12T09:56:42.032Z,40.76
2018-09-12T09:57:41.926Z,41.35
2018-09-12T09:58:41.942Z,41.85
2018-09-12T09:59:41.793Z,41.27
2018-09-12T10:00:41.730Z,42.34
2018-09-12T10:01:41.663Z,40.68
2018-09-12T10:02:41.664Z,41.07
2018-09-12T10:03:41.532Z,39.70
2018-09-12T10:04:41.499Z,40.78
2018-09-12T10:05:41.408Z,39.02
2018-09-12T10:06:41.339Z,39.31
2018-09-12T10:07:41.271Z,40.29
2018-09-12T10:08:41.295Z,39.41
2018-09-12T10:09:41.140Z,40.00
2018-09-12T10:10:41.104Z,40.29
2018-09-12T10:11:41.040Z,38.63
2018-09-12T10:12:41.016Z,38.24
2018-09-12T10:13:40.878Z,38.04
2018-09-12T10:14:40.931Z,38.34
2018-09-12T10:15:40.747Z,39.31
2018-09-12T10:16:40.742Z,39.61
2018-09-12T10:17:40.618Z,39.53
2018-09-12T10:18:40.649Z,38.53
2018-09-12T10:19:40.487Z,37.77
2018-09-12T10:20:40.457Z,38.75
2018-09-12T10:21:40.356Z,38.16
2018-09-12T10:22:40.369Z,37.77
2018-09-12T10:23:40.227Z,37.19
2018-09-12T10:24:40.280Z,38.26
2018-09-12T10:25:40.092Z,38.16
2018-09-12T10:26:40.090Z,37.96
2018-09-12T10:27:39.972Z,37.77
2018-09-12T10:28:39.999Z,37.96
2018-09-12T10:29:39.840Z,38.35
2018-09-12T10:30:39.810Z,37.77
2018-09-12T10:31:39.709Z,39.82
2018-09-12T10:32:39.721Z,39.62
2018-09-12T10:33:39.583Z,40.14
2018-09-12T10:34:39.632Z,39.84
2018-09-12T10:35:39.451Z,37.21
2018-09-12T10:36:39.443Z,37.40
2018-09-12T10:37:39.322Z,38.38
2018-09-12T10:38:39.353Z,37.11
2018-09-12T10:39:39.192Z,37.70
2018-09-12T10:40:39.163Z,37.91
2018-09-12T10:41:39.059Z,38.59
2018-09-12T10:42:39.077Z,38.30
2018-09-12T10:43:38.933Z,37.32
2018-09-12T10:44:38.987Z,36.54
2018-09-12T10:45:38.807Z,34.78
2018-09-12T10:46:38.796Z,36.05
2018-09-12T10:47:38.717Z,37.21
2018-09-12T10:48:38.707Z,37.11
2018-09-12T10:49:38.545Z,36.33
2018-09-12T10:50:38.516Z,36.54
2018-09-12T10:51:38.419Z,36.34
2018-09-12T10:52:38.354Z,37.52
2018-09-12T10:53:38.290Z,35.85
2018-09-12T10:54:38.337Z,35.75
2018-09-12T10:55:38.161Z,36.83
2018-09-12T10:56:38.148Z,37.71
2018-09-12T10:57:38.032Z,36.63
2018-09-12T10:58:38.059Z,35.75
2018-09-12T10:59:37.904Z,35.56
2018-09-12T11:00:37.869Z,35.66
2018-09-12T11:01:37.776Z,35.64
2018-09-12T11:02:37.780Z,35.17
2018-09-12T11:03:37.648Z,34.86
2018-09-12T11:04:37.694Z,35.95
2018-09-12T11:05:37.523Z,36.62
2018-09-12T11:06:37.509Z,37.50
2018-09-12T11:07:37.391Z,36.73
2018-09-12T11:08:37.413Z,37.41
2018-09-12T11:09:37.326Z,37.32
2018-09-12T11:10:37.198Z,36.73
2018-09-12T11:11:37.231Z,35.85
2018-09-12T11:12:37.065Z,35.36
2018-09-12T11:13:37.040Z,36.44
2018-09-12T11:14:36.942Z,37.71
2018-09-12T11:15:36.949Z,37.62
2018-09-12T11:16:36.816Z,37.32
2018-09-12T11:17:36.862Z,37.34
2018-09-12T11:18:36.686Z,36.07
2018-09-12T11:19:36.668Z,36.36
2018-09-12T11:20:36.557Z,37.54
2018-09-12T11:21:36.581Z,36.55
2018-09-12T11:22:36.437Z,36.85
2018-09-12T11:23:36.389Z,37.43
2018-09-12T11:24:36.302Z,37.35
2018-09-12T11:25:36.299Z,36.47
2018-09-12T11:26:36.176Z,34.70
2018-09-12T11:27:36.210Z,35.95
2018-09-12T11:28:36.046Z,36.55
2018-09-12T11:29:36.024Z,35.97
2018-09-12T11:30:35.919Z,35.97
2018-09-12T11:31:35.931Z,37.34
2018-09-12T11:32:35.790Z,38.14
2018-09-12T11:33:35.844Z,37.55
2018-09-12T11:34:35.666Z,34.72
2018-09-12T11:35:35.654Z,35.21
2018-09-12T11:36:35.531Z,35.69
2018-09-12T11:37:35.473Z,33.92
2018-09-12T11:38:35.469Z,33.72
2018-09-12T11:39:35.343Z,34.50
2018-09-12T11:40:35.380Z,34.99
2018-09-12T11:41:35.217Z,34.03
2018-09-12T11:42:35.189Z,34.23
2018-09-12T11:43:35.090Z,34.42
2018-09-12T11:44:35.102Z,35.01
2018-09-12T11:45:34.961Z,35.30
2018-09-12T11:46:35.011Z,35.01
2018-09-12T11:47:34.836Z,33.94
2018-09-12T11:48:34.825Z,34.42
2018-09-12T11:49:34.708Z,34.62
2018-09-12T11:50:34.732Z,35.79
2018-09-12T11:51:34.584Z,35.79
2018-09-12T11:52:34.541Z,35.32
2018-09-12T11:53:34.454Z,33.15
2018-09-12T11:54:34.454Z,32.84
2018-09-12T11:55:34.391Z,34.21
2018-09-12T11:56:34.264Z,34.91
2018-09-12T11:57:34.267Z,34.81
2018-09-12T11:58:34.135Z,34.42
2018-09-12T11:59:34.178Z,34.52
2018-09-12T12:00:34.009Z,32.94
2018-09-12T12:01:33.990Z,32.45
2018-09-12T12:02:33.881Z,33.02
2018-09-12T12:03:33.905Z,32.91
2018-09-12T12:04:33.755Z,33.30
2018-09-12T12:05:33.812Z,33.50
2018-09-12T12:06:33.632Z,34.67
2018-09-12T12:07:33.622Z,35.06
2018-09-12T12:08:33.506Z,35.27
2018-09-12T12:09:33.533Z,34.68
2018-09-12T12:10:33.377Z,34.88
2018-09-12T12:11:33.345Z,35.38
2018-09-12T12:12:33.247Z,35.87
2018-09-12T12:13:33.252Z,36.08
2018-09-12T12:14:33.119Z,34.81
2018-09-12T12:15:33.173Z,35.99
2018-09-12T12:16:33.016Z,35.71
2018-09-12T12:17:32.938Z,33.46
2018-09-12T12:18:32.865Z,32.87
2018-09-12T12:19:32.889Z,33.17
2018-09-12T12:20:32.739Z,33.26
2018-09-12T12:21:32.676Z,32.58
2018-09-12T12:22:32.703Z,33.26
2018-09-12T12:23:32.553Z,33.85
2018-09-12T12:24:32.511Z,32.97
2018-09-12T12:25:32.423Z,31.99
2018-09-12T12:26:32.424Z,33.56
2018-09-12T12:27:32.303Z,33.17
2018-09-12T12:28:32.336Z,34.24
2018-09-12T12:29:32.169Z,34.24
2018-09-12T12:30:32.144Z,33.95
2018-09-12T12:31:32.047Z,31.91
2018-09-12T12:32:32.054Z,33.38
2018-09-12T12:33:31.915Z,33.58
2018-09-12T12:34:31.965Z,33.67
2018-09-12T12:35:31.798Z,33.18
2018-09-12T12:36:31.771Z,33.69
2018-09-12T12:37:31.666Z,32.81
2018-09-12T12:38:31.685Z,31.93
2018-09-12T12:39:31.537Z,30.26
2018-09-12T12:40:31.497Z,30.75
2018-09-12T12:41:31.411Z,31.34
2018-09-12T12:42:31.409Z,31.13
2018-09-12T12:43:31.288Z,30.64
2018-09-12T12:44:31.318Z,30.74
2018-09-12T12:45:31.221Z,31.91
2018-09-12T12:46:31.131Z,32.01
2018-09-12T12:47:31.029Z,33.28
2018-09-12T12:48:31.038Z,32.10
2018-09-12T12:49:30.911Z,31.13
2018-09-12T12:50:30.950Z,31.81
2018-09-12T12:51:30.781Z,32.10